Pagina principală
METAR-TAF:

METAR-TAF

Aeroporturi :

Decatur Municipal Airport

Decatur, Texas, Statele Unite ale Americii

Latitudine: 33-15-16N, longitudine: 097-34-50W, elevație: 319 m

Observații meteo curente

Raportul a fost făcut în urmă cu 21 de minute, la 15:15 UTC
Vânt 4 kt de la Vest/Sud-vest
Temperatură 26°C
Umiditate 70%
Presiune 1012 hPa
Vizibilitate: 16.1 km
Cer senin

METAR: KLUD 181515Z AUTO 24004KT 10SM CLR 26/20 A2988 RMK AO2 T02550201

Ora: 10:36 (15:36 UTC)


TAF: lipsă

Observații și prognoze meteo pentru peste 4.000 de aeroporturi (rapoarte METAR și TAF).

Stațiile disponibile sunt reprezentate pe hartă prin puncte galbene și roșii.

Țineți indicatorul mouse-ului pe punctul dorit pentru a vedea denumirea stației.

Apoi, faceți clic pentru a vedea observațiile și prognozele meteorologice.

Pentru a schimba harta: Pentru mărire, faceți clic pe butoanele verzi cu cruce neagră; pentru micșorare, pe butonul verde cu o liniuță; pentru hărți învecinate, pe săgețile verzi.


METAR-TAF: